Dennis, Texas
Current Conditions -  °F | °C
As of 1:35 PM on Friday 31 Oct 2014 (Local Time) from KGDJ Reporting Station
Clear Clear  
Wind Chill: 19°   Ceiling: Unl
Heat Index: 19°   Visibility: 10mi
Dew Point:   Wind: 9mph
Humidity: 44%   Direction: 340°NNW
Pressure: 30.35"   Gusts: NA
Location:  32.62°N, 97.93°W
Report Text: KGDJ 311835Z AUTO 34008KT 10SM CLR 19/06 A3035 RMK AO2 T01870061
Loading
Personal Weather Stations






























Interactive Weather Map
Tropical Storm Tracking
New forecast layout! Learn more

10-Day Weather Forecast

Advertisements
Track Severe Weather on mobile